createdAt,value
2022-11-12T00:00:09.689Z,41.30
2022-11-12T00:01:09.682Z,34.40
2022-11-12T00:02:09.759Z,34.20
2022-11-12T00:03:09.662Z,36.20
2022-11-12T00:04:09.764Z,29.40
2022-11-12T00:05:09.641Z,34.60
2022-11-12T00:06:09.625Z,31.40
2022-11-12T00:07:09.670Z,44.10
2022-11-12T00:08:09.606Z,37.80
2022-11-12T00:09:09.600Z,43.10
2022-11-12T00:10:09.584Z,31.20
2022-11-12T00:11:09.572Z,42.50
2022-11-12T00:12:09.564Z,46.70
2022-11-12T00:13:09.553Z,34.40
2022-11-12T00:14:09.539Z,35.30
2022-11-12T00:15:09.539Z,38.50
2022-11-12T00:16:09.519Z,45.00
2022-11-12T00:17:09.510Z,39.50
2022-11-12T00:18:09.514Z,42.80
2022-11-12T00:19:09.488Z,32.90
2022-11-12T00:20:09.594Z,37.80
2022-11-12T00:21:09.468Z,35.90
2022-11-12T00:22:09.451Z,46.10
2022-11-12T00:23:09.441Z,45.80
2022-11-12T00:24:09.430Z,40.40
2022-11-12T00:25:09.424Z,52.60
2022-11-12T00:26:09.411Z,43.00
2022-11-12T00:27:09.404Z,35.80
2022-11-12T00:28:38.384Z,38.30
2022-11-12T00:29:36.870Z,40.90
2022-11-12T00:30:36.863Z,33.60
2022-11-12T00:31:36.846Z,43.20
2022-11-12T00:32:36.837Z,32.70
2022-11-12T00:33:36.827Z,48.30
2022-11-12T00:34:36.812Z,55.30
2022-11-12T00:35:36.924Z,44.10
2022-11-12T00:36:36.795Z,30.10
2022-11-12T00:37:36.781Z,32.80
2022-11-12T00:38:36.770Z,41.10
2022-11-12T00:39:36.757Z,44.90
2022-11-12T00:40:36.747Z,39.70
2022-11-12T00:41:36.736Z,38.80
2022-11-12T00:42:36.722Z,32.40
2022-11-12T00:43:36.715Z,31.40
2022-11-12T00:44:36.705Z,33.70
2022-11-12T00:45:36.694Z,38.80
2022-11-12T00:46:36.679Z,54.90
2022-11-12T00:47:36.667Z,44.50
2022-11-12T00:48:36.658Z,31.50
2022-11-12T00:49:36.648Z,34.40
2022-11-12T00:50:36.636Z,33.60
2022-11-12T00:51:36.741Z,41.20
2022-11-12T00:52:36.612Z,35.00
2022-11-12T00:53:36.598Z,37.30
2022-11-12T00:54:36.588Z,34.90
2022-11-12T00:55:36.574Z,35.60
2022-11-12T00:56:36.568Z,33.40
2022-11-12T00:57:36.554Z,36.60
2022-11-12T00:58:36.549Z,38.30
2022-11-12T00:59:36.531Z,35.30
2022-11-12T01:00:36.646Z,38.90
2022-11-12T01:01:36.508Z,32.50
2022-11-12T01:02:42.304Z,33.50
2022-11-12T01:03:36.544Z,50.40
2022-11-12T01:04:36.477Z,47.40
2022-11-12T01:05:39.365Z,36.80
2022-11-12T01:06:36.508Z,32.90
2022-11-12T01:07:36.558Z,35.70
2022-11-12T01:08:36.437Z,45.20
2022-11-12T01:09:36.425Z,41.20
2022-11-12T01:10:36.414Z,37.40
2022-11-12T01:11:36.402Z,36.10
2022-11-12T01:12:36.391Z,35.70
2022-11-12T01:13:41.356Z,39.30
2022-11-12T01:14:37.388Z,36.90
2022-11-12T01:15:36.352Z,47.50
2022-11-12T01:16:36.341Z,39.00
2022-11-12T01:17:36.337Z,38.80
2022-11-12T01:18:36.319Z,34.00
2022-11-12T01:19:36.309Z,35.40
2022-11-12T01:20:36.296Z,39.70
2022-11-12T01:21:36.427Z,56.30
2022-11-12T01:22:36.275Z,60.00
2022-11-12T01:23:36.379Z,39.60
2022-11-12T01:24:36.254Z,38.10
2022-11-12T01:25:36.241Z,36.90
2022-11-12T01:26:36.229Z,36.80
2022-11-12T01:27:36.217Z,37.00
2022-11-12T01:28:36.211Z,39.00
2022-11-12T01:29:36.193Z,51.20
2022-11-12T01:30:36.193Z,34.00
2022-11-12T01:31:36.177Z,41.00
2022-11-12T01:32:36.161Z,45.50
2022-11-12T01:33:36.152Z,42.30
2022-11-12T01:34:36.140Z,40.20
2022-11-12T01:35:36.129Z,37.20
2022-11-12T01:36:36.128Z,33.40
2022-11-12T01:37:36.105Z,36.70
2022-11-12T01:38:36.095Z,40.90
2022-11-12T01:39:36.200Z,32.50
2022-11-12T01:40:36.073Z,35.10
2022-11-12T01:41:36.058Z,37.60
2022-11-12T01:42:36.050Z,27.80
2022-11-12T01:43:36.042Z,33.70
2022-11-12T01:44:36.030Z,37.20
2022-11-12T01:45:36.015Z,44.40
2022-11-12T01:46:36.005Z,43.30
2022-11-12T01:47:35.992Z,38.70
2022-11-12T01:48:35.985Z,42.30
2022-11-12T01:49:35.974Z,40.10
2022-11-12T01:50:35.962Z,35.60
2022-11-12T01:51:35.948Z,34.30
2022-11-12T01:52:35.955Z,36.70
2022-11-12T01:53:35.929Z,38.60
2022-11-12T01:54:35.916Z,36.40
2022-11-12T01:55:36.020Z,38.70
2022-11-12T01:56:35.896Z,31.60
2022-11-12T01:57:35.879Z,39.90
2022-11-12T01:58:35.870Z,47.80
2022-11-12T01:59:35.861Z,56.00
2022-11-12T02:00:35.850Z,43.50
2022-11-12T02:01:35.882Z,48.80
2022-11-12T02:02:35.826Z,38.90
2022-11-12T02:03:35.815Z,37.70
2022-11-12T02:04:35.804Z,41.20
2022-11-12T02:05:35.790Z,47.20
2022-11-12T02:06:35.838Z,47.10
2022-11-12T02:07:35.768Z,34.80
2022-11-12T02:08:35.759Z,37.40
2022-11-12T02:09:35.747Z,42.90
2022-11-12T02:10:35.736Z,43.30
2022-11-12T02:11:35.843Z,48.50
2022-11-12T02:12:35.743Z,37.60
2022-11-12T02:13:35.704Z,44.70
2022-11-12T02:14:35.691Z,33.20
2022-11-12T02:17:29.252Z,43.90
2022-11-12T02:18:29.393Z,39.80
2022-11-12T02:19:29.234Z,53.20
2022-11-12T02:20:29.218Z,50.80
2022-11-12T02:21:29.207Z,40.70
2022-11-12T02:22:29.200Z,43.30
2022-11-12T02:23:29.189Z,40.70
2022-11-12T02:24:29.175Z,36.40
2022-11-12T02:25:29.167Z,36.60
2022-11-12T02:26:29.153Z,40.60
2022-11-12T02:27:29.257Z,40.60
2022-11-12T02:28:29.285Z,56.80
2022-11-12T02:29:29.120Z,63.60
2022-11-12T02:30:29.112Z,50.70
2022-11-12T02:31:29.097Z,47.20
2022-11-12T02:32:29.087Z,43.80
2022-11-12T02:33:29.075Z,38.80
2022-11-12T02:34:29.065Z,47.30
2022-11-12T02:35:29.054Z,40.40
2022-11-12T02:36:29.042Z,45.30
2022-11-12T02:37:29.032Z,40.70
2022-11-12T02:38:29.210Z,34.70
2022-11-12T02:39:29.008Z,42.70
2022-11-12T02:40:29.001Z,39.90
2022-11-12T02:41:28.987Z,55.10
2022-11-12T02:42:28.977Z,52.00
2022-11-12T02:43:29.086Z,50.50
2022-11-12T02:44:28.954Z,50.90
2022-11-12T02:45:28.941Z,40.60
2022-11-12T02:46:28.935Z,36.50
2022-11-12T02:47:28.920Z,35.40
2022-11-12T02:48:29.368Z,54.40
2022-11-12T02:49:28.903Z,73.20
2022-11-12T02:50:28.890Z,57.00
2022-11-12T02:51:28.876Z,51.70
2022-11-12T02:52:28.871Z,42.10
2022-11-12T02:53:28.854Z,40.60
2022-11-12T02:54:28.845Z,44.00
2022-11-12T02:55:28.835Z,50.60
2022-11-12T02:56:28.828Z,53.70
2022-11-12T02:57:28.811Z,44.70
2022-11-12T02:58:29.181Z,46.80
2022-11-12T02:59:28.908Z,44.50
2022-11-12T03:00:28.781Z,43.10
2022-11-12T03:01:28.814Z,43.60
2022-11-12T03:02:28.760Z,42.60
2022-11-12T03:03:28.745Z,59.70
2022-11-12T03:04:28.738Z,63.60
2022-11-12T03:05:28.728Z,73.80
2022-11-12T03:06:28.714Z,45.60
2022-11-12T03:07:28.703Z,39.40
2022-11-12T03:08:29.115Z,36.20
2022-11-12T03:09:28.679Z,32.50
2022-11-12T03:10:28.670Z,40.30
2022-11-12T03:11:28.660Z,44.80
2022-11-12T03:12:28.652Z,52.80
2022-11-12T03:13:28.639Z,49.80
2022-11-12T03:14:28.628Z,50.80
2022-11-12T03:15:28.733Z,57.50
2022-11-12T03:16:28.605Z,56.60
2022-11-12T03:17:28.592Z,45.10
2022-11-12T03:18:28.864Z,46.30
2022-11-12T03:19:28.579Z,43.40
2022-11-12T03:20:28.563Z,43.30
2022-11-12T03:21:28.548Z,51.20
2022-11-12T03:22:28.539Z,62.50
2022-11-12T03:23:28.527Z,45.50
2022-11-12T03:24:28.518Z,41.40
2022-11-12T03:25:28.506Z,49.50
2022-11-12T03:26:33.051Z,35.00
2022-11-12T03:27:29.507Z,44.90
2022-11-12T03:28:28.900Z,42.00
2022-11-12T03:29:28.461Z,55.00
2022-11-12T03:30:28.454Z,46.50
2022-11-12T03:31:28.554Z,46.10
2022-11-12T03:32:28.433Z,41.50
2022-11-12T03:33:28.418Z,48.40
2022-11-12T03:34:28.407Z,51.10
2022-11-12T03:35:28.394Z,50.80
2022-11-12T03:36:28.388Z,66.50
2022-11-12T03:37:28.373Z,52.00
2022-11-12T03:38:28.744Z,55.40
2022-11-12T03:39:28.351Z,67.40
2022-11-12T03:40:28.343Z,43.60
2022-11-12T03:41:28.339Z,49.80
2022-11-12T03:42:28.323Z,41.30
2022-11-12T03:43:28.311Z,36.00
2022-11-12T03:44:28.300Z,51.00
2022-11-12T03:45:28.289Z,58.40
2022-11-12T03:46:28.283Z,48.80
2022-11-12T03:47:28.381Z,40.60
2022-11-12T03:48:28.642Z,39.40
2022-11-12T03:49:28.248Z,37.10
2022-11-12T03:50:28.266Z,38.90
2022-11-12T03:51:28.264Z,43.00
2022-11-12T03:52:28.276Z,48.50
2022-11-12T03:53:28.293Z,48.10
2022-11-12T03:54:28.313Z,47.80
2022-11-12T03:55:28.325Z,40.30
2022-11-12T03:56:28.331Z,48.00
2022-11-12T03:57:28.182Z,57.50
2022-11-12T03:58:28.671Z,52.90
2022-11-12T03:59:28.146Z,46.90
2022-11-12T04:00:28.130Z,47.20
2022-11-12T04:01:28.231Z,50.10
2022-11-12T04:02:28.106Z,41.00
2022-11-12T04:03:28.215Z,41.10
2022-11-12T04:04:28.084Z,43.20
2022-11-12T04:05:28.073Z,39.40
2022-11-12T04:06:28.066Z,41.50
2022-11-12T04:07:28.324Z,41.00
2022-11-12T04:08:28.280Z,37.30
2022-11-12T04:09:28.034Z,51.20
2022-11-12T04:10:28.088Z,48.80
2022-11-12T04:11:28.006Z,43.60
2022-11-12T04:12:27.997Z,42.90
2022-11-12T04:13:27.998Z,39.40
2022-11-12T04:14:27.977Z,60.00
2022-11-12T04:15:27.975Z,40.50
2022-11-12T04:16:27.953Z,43.40
2022-11-12T04:17:27.943Z,40.90
2022-11-12T04:18:28.351Z,42.60
2022-11-12T04:19:28.038Z,39.90
2022-11-12T04:20:27.909Z,41.60
2022-11-12T04:21:27.899Z,42.40
2022-11-12T04:22:27.887Z,41.20
2022-11-12T04:23:27.881Z,41.40
2022-11-12T04:24:27.863Z,46.60
2022-11-12T04:25:27.854Z,58.10
2022-11-12T04:26:27.850Z,47.60
2022-11-12T04:27:27.834Z,48.20
2022-11-12T04:28:28.147Z,37.50
2022-11-12T04:29:27.810Z,44.80
2022-11-12T04:30:27.796Z,50.90
2022-11-12T04:31:27.794Z,42.30
2022-11-12T04:32:27.775Z,41.90
2022-11-12T04:33:27.766Z,39.60
2022-11-12T04:34:27.819Z,39.40
2022-11-12T04:35:27.872Z,49.70
2022-11-12T04:36:27.730Z,60.60
2022-11-12T04:37:27.722Z,63.70
2022-11-12T04:38:28.300Z,51.80
2022-11-12T04:39:27.695Z,54.60
2022-11-12T04:40:27.686Z,48.00
2022-11-12T04:41:27.673Z,36.60
2022-11-12T04:42:27.667Z,36.00
2022-11-12T04:43:27.654Z,40.40
2022-11-12T04:44:27.640Z,59.50
2022-11-12T04:45:27.628Z,48.50
2022-11-12T04:46:27.621Z,44.40
2022-11-12T04:47:27.609Z,43.60
2022-11-12T04:48:27.917Z,45.40
2022-11-12T04:49:27.583Z,46.50
2022-11-12T04:50:27.571Z,45.70
2022-11-12T04:51:27.682Z,58.10
2022-11-12T04:52:27.547Z,64.10
2022-11-12T04:53:27.538Z,54.30
2022-11-12T04:54:27.529Z,40.00
2022-11-12T04:55:27.516Z,58.40
2022-11-12T04:56:27.502Z,44.40
2022-11-12T04:57:27.493Z,45.50
2022-11-12T04:58:27.899Z,51.00
2022-11-12T04:59:27.470Z,48.70
2022-11-12T05:00:27.456Z,50.50
2022-11-12T05:01:27.460Z,46.00
2022-11-12T05:02:27.435Z,38.20
2022-11-12T05:03:27.432Z,32.60
2022-11-12T05:04:27.412Z,36.20
2022-11-12T05:05:31.117Z,39.90
2022-11-12T05:06:27.391Z,50.60
2022-11-12T05:07:27.498Z,44.10
2022-11-12T05:08:27.761Z,43.10
2022-11-12T05:09:27.358Z,41.10
2022-11-12T05:10:27.346Z,43.90
2022-11-12T05:11:27.337Z,48.30
2022-11-12T05:12:27.325Z,34.70
2022-11-12T05:13:27.313Z,38.10
2022-11-12T05:14:27.299Z,57.90
2022-11-12T05:15:27.288Z,45.40
2022-11-12T05:16:27.279Z,50.80
2022-11-12T05:17:27.266Z,51.10
2022-11-12T05:18:27.484Z,64.20
2022-11-12T05:19:27.246Z,39.20
2022-11-12T05:20:27.231Z,41.10
2022-11-12T05:21:27.221Z,45.50
2022-11-12T05:22:43.287Z,43.50
2022-11-12T05:23:28.340Z,43.70
2022-11-12T05:24:41.161Z,46.70
2022-11-12T05:25:28.200Z,44.40
2022-11-12T05:26:27.310Z,42.90
2022-11-12T05:27:27.154Z,44.00
2022-11-12T05:28:27.380Z,50.10
2022-11-12T05:29:27.130Z,53.20
2022-11-12T05:30:27.120Z,38.30
2022-11-12T05:31:27.109Z,45.30
2022-11-12T05:32:27.093Z,47.00
2022-11-12T05:33:27.086Z,38.00
2022-11-12T05:34:27.076Z,37.30
2022-11-12T05:35:27.064Z,37.00
2022-11-12T05:36:27.051Z,38.60
2022-11-12T05:37:27.042Z,47.50
2022-11-12T05:38:27.284Z,47.80
2022-11-12T05:39:27.134Z,42.60
2022-11-12T05:40:27.009Z,44.30
2022-11-12T05:41:26.996Z,46.70
2022-11-12T05:42:26.983Z,51.20
2022-11-12T05:43:26.974Z,59.70
2022-11-12T05:44:26.961Z,65.90
2022-11-12T05:45:26.960Z,52.70
2022-11-12T05:46:26.938Z,44.80
2022-11-12T05:47:26.928Z,43.40
2022-11-12T05:48:27.400Z,45.50
2022-11-12T05:49:26.909Z,39.10
2022-11-12T05:50:35.017Z,49.10
2022-11-12T05:51:26.886Z,48.90
2022-11-12T05:52:26.868Z,45.10
2022-11-12T05:53:26.861Z,51.50
2022-11-12T05:54:26.852Z,44.40
2022-11-12T05:55:26.952Z,46.60
2022-11-12T05:56:26.824Z,44.10
2022-11-12T05:57:26.816Z,47.10
2022-11-12T05:58:27.139Z,42.10
2022-11-12T05:59:26.794Z,45.80
2022-11-12T06:00:26.784Z,46.80
2022-11-12T06:01:26.770Z,48.30
2022-11-12T06:02:26.792Z,52.40
2022-11-12T06:03:26.746Z,49.10
2022-11-12T06:04:26.734Z,51.60
2022-11-12T06:05:26.728Z,52.70
2022-11-12T06:06:26.711Z,50.00
2022-11-12T06:07:26.701Z,58.20
2022-11-12T06:08:27.094Z,47.40
2022-11-12T06:09:26.678Z,56.60
2022-11-12T06:10:26.671Z,49.20
2022-11-12T06:11:26.778Z,49.10
2022-11-12T06:12:26.645Z,41.10
2022-11-12T06:13:26.637Z,43.80
2022-11-12T06:14:26.626Z,49.20
2022-11-12T06:15:26.615Z,54.10
2022-11-12T06:16:26.602Z,55.10
2022-11-12T06:17:26.593Z,52.00
2022-11-12T06:18:26.782Z,52.60
2022-11-12T06:19:26.570Z,58.50
2022-11-12T06:20:26.556Z,57.80
2022-11-12T06:21:26.551Z,47.80
2022-11-12T06:22:26.534Z,42.30
2022-11-12T06:23:26.526Z,43.80
2022-11-12T06:24:29.505Z,43.90
2022-11-12T06:25:27.529Z,52.90
2022-11-12T06:26:26.494Z,59.80
2022-11-12T06:27:26.596Z,57.70
2022-11-12T06:28:26.780Z,53.20
2022-11-12T06:29:26.460Z,55.40
2022-11-12T06:30:26.445Z,55.40
2022-11-12T06:31:26.436Z,49.80
2022-11-12T06:32:26.422Z,49.60
2022-11-12T06:33:26.426Z,50.60
2022-11-12T06:34:26.401Z,46.70
2022-11-12T06:35:26.391Z,43.80
2022-11-12T06:36:26.379Z,69.20
2022-11-12T06:37:26.369Z,44.30
2022-11-12T06:38:26.655Z,47.80
2022-11-12T06:39:26.346Z,47.10
2022-11-12T06:40:26.336Z,58.70
2022-11-12T06:41:26.330Z,54.50
2022-11-12T06:42:26.311Z,51.50
2022-11-12T06:43:26.419Z,48.10
2022-11-12T06:44:26.292Z,47.40
2022-11-12T06:45:26.284Z,48.50
2022-11-12T06:46:26.273Z,65.70
2022-11-12T06:47:26.263Z,52.80
2022-11-12T06:48:26.404Z,55.20
2022-11-12T06:49:26.239Z,58.00
2022-11-12T06:50:26.227Z,43.90
2022-11-12T06:51:26.221Z,38.50
2022-11-12T06:52:26.207Z,37.30
2022-11-12T06:53:26.198Z,52.80
2022-11-12T06:54:26.187Z,48.00
2022-11-12T06:55:26.175Z,51.00
2022-11-12T06:56:26.163Z,49.20
2022-11-12T06:57:26.159Z,46.50
2022-11-12T06:58:26.507Z,47.90
2022-11-12T06:59:26.249Z,48.10
2022-11-12T07:00:26.126Z,52.20
2022-11-12T07:01:26.199Z,49.10
2022-11-12T07:02:26.101Z,51.00
2022-11-12T07:03:26.096Z,48.00
2022-11-12T07:04:26.077Z,53.60
2022-11-12T07:05:26.069Z,43.60
2022-11-12T07:06:26.064Z,44.30
2022-11-12T07:07:26.093Z,43.70
2022-11-12T07:08:26.501Z,45.70
2022-11-12T07:09:26.031Z,43.90
2022-11-12T07:10:26.017Z,51.20
2022-11-12T07:11:26.004Z,38.40
2022-11-12T07:12:25.995Z,43.60
2022-11-12T07:13:25.985Z,39.50
2022-11-12T07:14:25.970Z,41.10
2022-11-12T07:15:26.087Z,46.80
2022-11-12T07:16:25.957Z,44.70
2022-11-12T07:17:25.945Z,47.10
2022-11-12T07:18:26.397Z,31.60
2022-11-12T07:19:25.922Z,54.00
2022-11-12T07:20:25.908Z,46.20
2022-11-12T07:21:25.899Z,47.90
2022-11-12T07:22:25.885Z,43.70
2022-11-12T07:23:25.883Z,44.80
2022-11-12T07:24:25.864Z,50.80
2022-11-12T07:25:25.853Z,52.10
2022-11-12T07:26:25.843Z,51.70
2022-11-12T07:27:25.832Z,49.30
2022-11-12T07:28:26.228Z,50.90
2022-11-12T07:29:46.306Z,47.10
2022-11-12T07:30:26.824Z,38.50
2022-11-12T07:31:25.900Z,44.60
2022-11-12T07:32:25.771Z,43.30
2022-11-12T07:33:25.763Z,44.30
2022-11-12T07:34:25.751Z,46.30
2022-11-12T07:35:25.743Z,42.70
2022-11-12T07:36:25.729Z,40.70
2022-11-12T07:37:25.721Z,44.10
2022-11-12T07:38:26.166Z,47.90
2022-11-12T07:39:25.697Z,40.50
2022-11-12T07:40:25.689Z,42.20
2022-11-12T07:41:25.678Z,47.40
2022-11-12T07:42:25.661Z,42.10
2022-11-12T07:43:25.953Z,44.60
2022-11-12T07:44:25.640Z,42.80
2022-11-12T07:45:25.632Z,45.00
2022-11-12T07:46:25.616Z,44.30
2022-11-12T07:47:25.726Z,44.80
2022-11-12T07:48:26.084Z,48.40
2022-11-12T07:49:25.584Z,51.00
2022-11-12T07:50:25.573Z,47.20
2022-11-12T07:51:25.579Z,43.50
2022-11-12T07:52:25.548Z,45.80
2022-11-12T07:53:25.541Z,41.40
2022-11-12T07:54:25.525Z,44.50
2022-11-12T07:55:25.517Z,46.30
2022-11-12T07:56:25.501Z,48.70
2022-11-12T07:57:25.491Z,47.10
2022-11-12T07:58:25.954Z,42.40
2022-11-12T07:59:25.470Z,48.00
2022-11-12T08:00:25.461Z,52.10
2022-11-12T08:01:25.497Z,51.90
2022-11-12T08:02:25.435Z,54.40
2022-11-12T08:03:25.556Z,57.60
2022-11-12T08:04:25.416Z,56.90
2022-11-12T08:05:25.411Z,62.20
2022-11-12T08:06:25.389Z,51.50
2022-11-12T08:07:25.516Z,53.30
2022-11-12T08:08:25.742Z,50.80
2022-11-12T08:09:25.359Z,56.50
2022-11-12T08:10:25.351Z,45.90
2022-11-12T08:11:25.341Z,44.40
2022-11-12T08:12:25.329Z,57.00
2022-11-12T08:13:25.317Z,68.60
2022-11-12T08:14:25.309Z,59.30
2022-11-12T08:15:25.307Z,60.40
2022-11-12T08:16:25.281Z,57.90
2022-11-12T08:17:25.274Z,57.20
2022-11-12T08:18:25.626Z,52.00
2022-11-12T08:19:25.371Z,47.40
2022-11-12T08:20:25.240Z,43.70
2022-11-12T08:21:25.228Z,49.50
2022-11-12T08:22:25.221Z,47.20
2022-11-12T08:23:25.213Z,51.40
2022-11-12T08:24:25.197Z,52.30
2022-11-12T08:25:25.186Z,68.10
2022-11-12T08:26:25.176Z,64.80
2022-11-12T08:27:25.162Z,56.20
2022-11-12T08:28:25.542Z,54.20
2022-11-12T08:29:25.144Z,60.70
2022-11-12T08:30:25.136Z,45.20
2022-11-12T08:31:25.122Z,52.30
2022-11-12T08:32:25.126Z,54.30
2022-11-12T08:33:25.102Z,52.00
2022-11-12T08:34:25.089Z,48.10
2022-11-12T08:35:25.190Z,63.20
2022-11-12T08:36:25.064Z,61.60
2022-11-12T08:37:25.053Z,58.30
2022-11-12T08:38:25.587Z,63.20
2022-11-12T08:39:25.035Z,55.30
2022-11-12T08:40:25.022Z,53.80
2022-11-12T08:41:25.010Z,45.90
2022-11-12T08:42:24.999Z,44.50
2022-11-12T08:43:24.987Z,47.30
2022-11-12T08:44:24.991Z,49.80
2022-11-12T08:45:24.966Z,46.20
2022-11-12T08:46:24.969Z,52.20
2022-11-12T08:47:24.950Z,57.90
2022-11-12T08:48:25.273Z,60.00
2022-11-12T08:49:24.923Z,58.60
2022-11-12T08:50:24.967Z,50.90
2022-11-12T08:51:25.017Z,45.30
2022-11-12T08:52:24.927Z,42.40
2022-11-12T08:53:24.880Z,38.70
2022-11-12T08:54:24.870Z,39.40
2022-11-12T08:55:24.862Z,43.20
2022-11-12T08:56:24.845Z,35.20
2022-11-12T08:57:24.834Z,39.30
2022-11-12T08:58:25.300Z,43.40
2022-11-12T08:59:24.815Z,44.40
2022-11-12T09:00:24.892Z,43.90
2022-11-12T09:01:24.854Z,47.20
2022-11-12T09:02:24.780Z,43.90
2022-11-12T09:03:24.771Z,39.00
2022-11-12T09:04:24.773Z,34.00
2022-11-12T09:05:24.764Z,35.40
2022-11-12T09:06:24.736Z,39.30
2022-11-12T09:08:26.306Z,35.60
2022-11-12T09:09:24.704Z,32.20
2022-11-12T09:10:24.697Z,30.20
2022-11-12T09:11:24.681Z,29.90
2022-11-12T09:12:24.669Z,33.20
2022-11-12T09:13:24.723Z,27.80
2022-11-12T09:14:24.656Z,34.00
2022-11-12T09:15:39.924Z,33.00
2022-11-12T09:16:25.656Z,32.40
2022-11-12T09:17:24.643Z,32.10
2022-11-12T09:18:25.023Z,31.50
2022-11-12T09:19:24.597Z,36.40
2022-11-12T09:20:24.583Z,31.30
2022-11-12T09:21:24.570Z,33.10
2022-11-12T09:22:24.559Z,36.90
2022-11-12T09:23:24.668Z,29.50
2022-11-12T09:24:24.537Z,24.60
2022-11-12T09:25:24.526Z,27.80
2022-11-12T09:26:24.519Z,25.80
2022-11-12T09:27:24.505Z,31.40
2022-11-12T09:28:24.920Z,32.80
2022-11-12T09:29:24.485Z,34.70
2022-11-12T09:30:24.476Z,35.80
2022-11-12T09:31:24.460Z,33.50
2022-11-12T09:32:24.453Z,29.70
2022-11-12T09:33:24.437Z,30.50
2022-11-12T09:34:24.430Z,31.50
2022-11-12T09:35:24.417Z,32.70
2022-11-12T09:36:24.470Z,25.80
2022-11-12T09:37:25.506Z,25.80
2022-11-12T09:38:24.780Z,32.60
2022-11-12T09:39:24.484Z,30.70
2022-11-12T09:40:24.361Z,26.70
2022-11-12T09:41:24.353Z,26.50
2022-11-12T09:42:24.340Z,33.90
2022-11-12T09:43:24.327Z,32.30
2022-11-12T09:44:24.315Z,27.80
2022-11-12T09:45:24.309Z,29.00
2022-11-12T09:46:28.350Z,27.40
2022-11-12T09:47:24.282Z,29.70
2022-11-12T09:48:24.700Z,29.00
2022-11-12T09:49:24.263Z,29.80
2022-11-12T09:50:24.251Z,34.20
2022-11-12T09:51:24.238Z,30.70
2022-11-12T09:52:24.231Z,35.60
2022-11-12T09:53:24.218Z,29.00
2022-11-12T09:54:24.217Z,35.80
2022-11-12T09:55:24.312Z,30.80
2022-11-12T09:56:24.185Z,34.50
2022-11-12T09:57:24.174Z,32.10
2022-11-12T09:58:24.593Z,33.00
2022-11-12T09:59:24.152Z,27.50
2022-11-12T10:00:24.140Z,32.80
2022-11-12T10:01:24.220Z,30.70
2022-11-12T10:02:24.118Z,26.10
2022-11-12T10:03:24.107Z,26.90
2022-11-12T10:04:24.103Z,23.00
2022-11-12T10:05:24.083Z,27.90
2022-11-12T10:06:24.075Z,30.40
2022-11-12T10:07:24.063Z,29.40
2022-11-12T10:08:24.366Z,28.20
2022-11-12T10:09:24.042Z,34.20
2022-11-12T10:10:24.039Z,34.60
2022-11-12T10:11:24.136Z,26.40
2022-11-12T10:12:24.014Z,25.80
2022-11-12T10:13:23.997Z,28.80
2022-11-12T10:14:23.987Z,27.70
2022-11-12T10:15:23.985Z,29.70
2022-11-12T10:16:23.965Z,29.70
2022-11-12T10:17:23.951Z,31.10
2022-11-12T10:18:24.310Z,28.20
2022-11-12T10:19:23.930Z,27.00
2022-11-12T10:20:23.918Z,22.20
2022-11-12T10:21:23.923Z,24.50
2022-11-12T10:22:23.897Z,29.40
2022-11-12T10:23:23.891Z,32.60
2022-11-12T10:24:23.875Z,37.60
2022-11-12T10:25:23.868Z,26.50
2022-11-12T10:26:23.853Z,30.10
2022-11-12T10:27:23.958Z,25.70
2022-11-12T10:28:24.188Z,32.30
2022-11-12T10:29:23.821Z,27.00
2022-11-12T10:30:23.812Z,30.10
2022-11-12T10:31:23.794Z,29.00
2022-11-12T10:32:23.798Z,29.00
2022-11-12T10:33:23.778Z,27.70
2022-11-12T10:34:23.766Z,31.10
2022-11-12T10:35:23.756Z,28.70
2022-11-12T10:36:23.748Z,27.80
2022-11-12T10:37:23.732Z,28.90
2022-11-12T10:38:23.985Z,23.60
2022-11-12T10:39:23.713Z,26.90
2022-11-12T10:40:23.699Z,22.90
2022-11-12T10:41:23.686Z,23.10
2022-11-12T10:42:23.680Z,19.30
2022-11-12T10:43:23.781Z,24.00
2022-11-12T10:44:23.655Z,25.50
2022-11-12T10:45:23.644Z,23.60
2022-11-12T10:46:23.633Z,28.50
2022-11-12T10:47:23.621Z,23.40
2022-11-12T10:48:27.279Z,20.60
2022-11-12T10:49:23.600Z,19.70
2022-11-12T10:50:23.591Z,21.30
2022-11-12T10:51:23.573Z,22.20
2022-11-12T10:52:23.564Z,25.70
2022-11-12T10:53:23.552Z,20.30
2022-11-12T10:54:23.550Z,24.40
2022-11-12T10:55:23.540Z,22.10
2022-11-12T10:56:23.520Z,23.90
2022-11-12T10:57:23.527Z,23.30
2022-11-12T10:58:23.690Z,24.00
2022-11-12T10:59:23.654Z,22.60
2022-11-12T11:00:23.582Z,24.60
2022-11-12T11:01:23.618Z,21.70
2022-11-12T11:02:23.679Z,23.00
2022-11-12T11:03:23.647Z,21.10
2022-11-12T11:04:23.631Z,27.50
2022-11-12T11:05:23.642Z,23.10
2022-11-12T11:06:23.413Z,20.70
2022-11-12T11:07:23.398Z,24.50
2022-11-12T11:08:23.558Z,23.50
2022-11-12T11:09:23.377Z,24.90
2022-11-12T11:10:23.365Z,26.20
2022-11-12T11:11:23.358Z,24.70
2022-11-12T11:12:23.346Z,26.20
2022-11-12T11:13:23.337Z,26.10
2022-11-12T11:14:23.326Z,25.00
2022-11-12T11:15:23.487Z,23.30
2022-11-12T11:16:23.301Z,23.20
2022-11-12T11:17:23.292Z,25.10
2022-11-12T11:18:23.325Z,24.30
2022-11-12T11:19:23.266Z,25.10
2022-11-12T11:20:23.260Z,31.80
2022-11-12T11:21:23.247Z,26.70
2022-11-12T11:22:23.236Z,25.10
2022-11-12T11:23:23.225Z,23.90
2022-11-12T11:24:23.214Z,23.40
2022-11-12T11:25:23.206Z,22.70
2022-11-12T11:26:23.193Z,29.50
2022-11-12T11:27:23.183Z,32.40
2022-11-12T11:28:23.372Z,28.20
2022-11-12T11:29:23.157Z,27.70
2022-11-12T11:30:23.158Z,28.40
2022-11-12T11:31:23.257Z,30.10
2022-11-12T11:32:23.132Z,28.80
2022-11-12T11:33:23.114Z,28.20
2022-11-12T11:34:23.105Z,26.80
2022-11-12T11:35:23.091Z,30.30
2022-11-12T11:36:23.089Z,29.00
2022-11-12T11:37:23.078Z,26.90
2022-11-12T11:38:23.169Z,27.60
2022-11-12T11:39:23.046Z,24.80
2022-11-12T11:40:23.036Z,27.10
2022-11-12T11:41:23.023Z,24.30
2022-11-12T11:42:23.020Z,22.30
2022-11-12T11:43:23.005Z,18.40
2022-11-12T11:44:23.061Z,19.50
2022-11-12T11:45:22.978Z,20.70
2022-11-12T11:46:22.976Z,18.00
2022-11-12T11:47:23.080Z,16.00
2022-11-12T11:48:22.951Z,16.60
2022-11-12T11:49:22.943Z,19.60
2022-11-12T11:50:22.928Z,17.30
2022-11-12T11:51:26.028Z,17.90
2022-11-12T11:52:22.905Z,19.60
2022-11-12T11:53:22.893Z,19.60
2022-11-12T11:54:22.884Z,17.60
2022-11-12T11:55:22.871Z,15.30
2022-11-12T11:56:22.862Z,15.60
2022-11-12T11:57:22.850Z,16.80
2022-11-12T11:58:22.859Z,18.30
2022-11-12T11:59:22.825Z,17.00
2022-11-12T12:00:22.818Z,20.80
2022-11-12T12:01:22.801Z,19.60
2022-11-12T12:02:22.796Z,18.70
2022-11-12T12:03:22.959Z,22.70
2022-11-12T12:04:22.771Z,20.50
2022-11-12T12:05:22.760Z,18.90
2022-11-12T12:06:22.753Z,14.90
2022-11-12T12:07:22.792Z,17.80
2022-11-12T12:08:22.728Z,22.10
2022-11-12T12:09:22.715Z,17.60
2022-11-12T12:10:22.972Z,19.40
2022-11-12T12:11:22.698Z,19.00
2022-11-12T12:12:22.683Z,15.60
2022-11-12T12:13:22.669Z,16.60
2022-11-12T12:14:22.663Z,16.60
2022-11-12T12:15:22.647Z,18.00
2022-11-12T12:16:22.638Z,16.60
2022-11-12T12:17:23.426Z,14.70
2022-11-12T12:18:22.617Z,18.00
2022-11-12T12:19:22.719Z,12.80
2022-11-12T12:20:22.595Z,14.30
2022-11-12T12:21:22.584Z,15.30
2022-11-12T12:22:22.586Z,14.80
2022-11-12T12:23:22.560Z,13.00
2022-11-12T12:24:22.552Z,13.50
2022-11-12T12:25:22.537Z,14.00
2022-11-12T12:26:22.527Z,12.50
2022-11-12T12:27:22.516Z,13.50
2022-11-12T12:28:22.513Z,12.80
2022-11-12T12:29:22.496Z,11.70
2022-11-12T12:30:22.486Z,13.90
2022-11-12T12:31:22.475Z,13.70
2022-11-12T12:32:24.413Z,16.60
2022-11-12T12:33:22.468Z,15.00
2022-11-12T12:34:22.439Z,11.90
2022-11-12T12:35:22.548Z,12.00
2022-11-12T12:36:22.419Z,12.40
2022-11-12T12:37:22.408Z,12.50
2022-11-12T12:38:22.393Z,10.80
2022-11-12T12:39:22.388Z,15.20
2022-11-12T12:40:22.377Z,12.10
2022-11-12T12:41:22.363Z,11.70
2022-11-12T12:42:22.352Z,13.40
2022-11-12T12:43:22.345Z,11.20
2022-11-12T12:44:22.330Z,13.10
2022-11-12T12:45:22.341Z,15.30
2022-11-12T12:46:22.309Z,12.50
2022-11-12T12:47:22.311Z,13.50
2022-11-12T12:48:22.520Z,11.50
2022-11-12T12:49:22.276Z,11.50
2022-11-12T12:50:22.263Z,12.20
2022-11-12T12:51:22.374Z,12.30
2022-11-12T12:52:22.244Z,14.30
2022-11-12T12:53:22.248Z,14.80
2022-11-12T12:54:22.220Z,12.80
2022-11-12T12:55:22.206Z,12.70